Time;durP1;ratioP1;P1;durP2;ratioP2;P2;SDS_P1;SDS_P2;PMS_P1;PMS_P2;Temp;Humidity;BMP_temperature;BMP_pressure;BME280_temperature;BME280_humidity;BME280_pressure;Samples;Min_cycle;Max_cycle;Signal;HPM_P1;HPM_P2
2023/04/01 00:00:35;;;;;;;;;;;;;;;8.48;nan;97517.25;4924283;29;19921;-89
2023/04/01 00:03:20;;;;;;;;;;;;;;;8.52;nan;97521.06;4924272;29;19965;-87
2023/04/01 00:06:04;;;;;;;;;;;;;;;8.31;nan;97533.50;4922699;29;19925;-87
2023/04/01 00:08:48;;;;;;;;;;;;;;;8.34;nan;97521.81;4923204;29;20028;-88
2023/04/01 00:11:32;;;;;;;;;;;;;;;8.25;nan;97526.50;4938390;29;19921;-89
2023/04/01 00:14:16;;;;;;;;;;;;;;;8.31;nan;97533.50;4937850;29;19922;-89
2023/04/01 00:17:00;;;;;;;;;;;;;;;8.55;nan;97531.06;4923626;29;19930;-88
2023/04/01 00:19:44;;;;;;;;;;;;;;;8.64;nan;97545.44;4921386;29;19922;-88
2023/04/01 00:22:28;;;;;;;;;;;;;;;8.56;nan;97541.31;4904654;29;19965;-87
2023/04/01 00:25:12;;;;;;;;;;;;;;;8.20;nan;97565.56;4904307;29;20006;-88
2023/04/01 00:27:56;;;;;;;;;;;;;;;8.18;nan;97547.50;4904765;29;19937;-87
2023/04/01 00:30:40;;;;;;;;;;;;;;;8.40;nan;97547.88;4904691;29;19929;-88
2023/04/01 00:33:25;;;;;;;;;;;;;;;8.32;nan;97542.94;4904298;29;19921;-87
2023/04/01 00:36:13;;;;;;;;;;;;;;;8.32;nan;97549.97;4916282;29;19922;-87
2023/04/01 00:38:58;;;;;;;;;;;;;;;8.57;nan;97542.09;4898063;29;19922;-87
2023/04/01 00:41:42;;;;;;;;;;;;;;;8.27;nan;97548.81;4902395;29;19926;-89
2023/04/01 00:44:27;;;;;;;;;;;;;;;8.24;nan;97566.75;4902466;29;19943;-87
2023/04/01 00:47:12;;;;;;;;;;;;;;;8.17;nan;97576.47;4903760;29;20322;-88
2023/04/01 00:50:05;;;;;;;;;;;;;;;8.14;nan;97565.44;4904123;29;19943;-87
2023/04/01 00:52:49;;;;;;;;;;;;;;;8.31;nan;97567.50;4897778;29;19922;-89
2023/04/01 00:55:35;;;;;;;;;;;;;;;8.27;nan;97571.56;4901315;29;19966;-88
2023/04/01 00:58:26;;;;;;;;;;;;;;;8.42;nan;97574.59;4917599;29;19922;-86
2023/04/01 01:01:10;;;;;;;;;;;;;;;8.29;nan;97570.31;4916643;29;19922;-89
2023/04/01 01:03:54;;;;;;;;;;;;;;;8.13;nan;97576.91;4899768;29;19922;-86
2023/04/01 01:06:50;;;;;;;;;;;;;;;7.96;nan;97575.84;4901536;29;20022;-86
2023/04/01 01:09:41;;;;;;;;;;;;;;;8.32;nan;97566.47;4903350;29;19921;-88
2023/04/01 01:12:31;;;;;;;;;;;;;;;8.32;nan;97571.72;4902312;29;19965;-88
2023/04/01 01:15:25;;;;;;;;;;;;;;;8.29;nan;97564.31;4900012;29;20044;-89
2023/04/01 01:18:29;;;;;;;;;;;;;;;8.49;nan;97573.75;4903219;29;19922;-86
2023/04/01 01:21:19;;;;;;;;;;;;;;;8.27;nan;97569.72;4896369;29;19974;-88
2023/04/01 01:24:16;;;;;;;;;;;;;;;8.26;nan;97581.19;4920824;29;20021;-88
2023/04/01 01:27:15;;;;;;;;;;;;;;;8.54;nan;97579.94;4917706;29;19925;-86
2023/04/01 01:29:59;;;;;;;;;;;;;;;8.18;nan;97593.75;4930087;29;19922;-87
2023/04/01 01:32:43;;;;;;;;;;;;;;;8.26;nan;97585.66;4918628;29;19925;-87
2023/04/01 01:35:49;;;;;;;;;;;;;;;8.37;nan;97592.75;4919995;29;19965;-87
2023/04/01 01:38:34;;;;;;;;;;;;;;;8.29;nan;97600.91;4933976;29;19926;-88
2023/04/01 01:41:23;;;;;;;;;;;;;;;8.03;nan;97607.16;4921619;29;19937;-88
2023/04/01 01:44:11;;;;;;;;;;;;;;;8.12;nan;97604.06;4921270;29;20353;-86
2023/04/01 01:50:26;;;;;;;;;;;;;;;8.06;nan;97612.75;4934402;29;20337;-86
2023/04/01 01:53:22;;;;;;;;;;;;;;;7.94;nan;97617.84;4920122;29;19922;-87
2023/04/01 01:56:08;;;;;;;;;;;;;;;7.89;nan;97627.34;4920478;29;19939;-88
2023/04/01 02:05:44;;;;;;;;;;;;;;;7.82;nan;97632.63;4931008;29;19970;-88
2023/04/01 02:08:48;;;;;;;;;;;;;;;8.18;nan;97643.41;4920934;29;19922;-88
2023/04/01 02:11:36;;;;;;;;;;;;;;;8.02;nan;97648.13;4935506;29;19921;-88
2023/04/01 02:14:22;;;;;;;;;;;;;;;7.81;nan;97650.09;4934514;29;20384;-87
2023/04/01 02:17:11;;;;;;;;;;;;;;;7.68;nan;97658.03;4920901;29;20405;-88
2023/04/01 02:19:58;;;;;;;;;;;;;;;7.77;nan;97655.97;4921071;29;19970;-89
2023/04/01 02:22:45;;;;;;;;;;;;;;;7.91;nan;97661.91;4920281;29;19998;-88
2023/04/01 02:25:33;;;;;;;;;;;;;;;7.96;nan;97670.72;4920039;29;20333;-88
2023/04/01 02:28:20;;;;;;;;;;;;;;;7.73;nan;97671.25;4935018;29;20365;-87
2023/04/01 02:31:04;;;;;;;;;;;;;;;7.74;nan;97677.25;4921557;29;19922;-87
2023/04/01 02:33:49;;;;;;;;;;;;;;;7.82;nan;97679.63;4934696;29;19921;-88
2023/04/01 02:36:34;;;;;;;;;;;;;;;7.79;nan;97665.19;4920851;29;20445;-87
2023/04/01 02:39:18;;;;;;;;;;;;;;;7.88;nan;97655.28;4920716;29;19921;-86
2023/04/01 02:42:03;;;;;;;;;;;;;;;7.71;nan;97673.28;4919980;29;19970;-88
2023/04/01 02:44:47;;;;;;;;;;;;;;;7.92;nan;97666.13;4924980;29;19938;-87
2023/04/01 02:47:31;;;;;;;;;;;;;;;7.77;nan;97677.66;4939378;29;19922;-88
2023/04/01 02:50:15;;;;;;;;;;;;;;;7.75;nan;97684.91;4924670;29;19922;-89
2023/04/01 02:52:59;;;;;;;;;;;;;;;7.66;nan;97679.13;4923042;29;19918;-87
2023/04/01 02:55:44;;;;;;;;;;;;;;;7.93;nan;97692.00;4938334;29;20289;-88
2023/04/01 02:58:28;;;;;;;;;;;;;;;7.81;nan;97699.72;4924305;29;19969;-87
2023/04/01 03:01:12;;;;;;;;;;;;;;;7.99;nan;97701.66;4923509;29;19925;-87
2023/04/01 03:03:56;;;;;;;;;;;;;;;7.83;nan;97702.91;4924566;29;19921;-87
2023/04/01 03:06:40;;;;;;;;;;;;;;;7.73;nan;97699.97;4924358;29;19925;-88
2023/04/01 03:09:24;;;;;;;;;;;;;;;7.75;nan;97721.47;4923196;29;19922;-88
2023/04/01 03:12:08;;;;;;;;;;;;;;;8.13;nan;97712.81;4924739;29;20035;-89
2023/04/01 03:14:52;;;;;;;;;;;;;;;8.02;nan;97716.09;4924246;29;20150;-88
2023/04/01 03:17:36;;;;;;;;;;;;;;;8.02;nan;97718.69;4920479;29;20404;-87
2023/04/01 03:20:20;;;;;;;;;;;;;;;7.91;nan;97720.16;4922447;29;19926;-87
2023/04/01 03:23:04;;;;;;;;;;;;;;;7.52;nan;97717.56;4924445;29;20001;-85
2023/04/01 03:25:48;;;;;;;;;;;;;;;7.54;nan;97717.31;4923955;29;19925;-87
2023/04/01 03:28:32;;;;;;;;;;;;;;;7.71;nan;97720.28;4923976;29;19965;-87
2023/04/01 03:31:16;;;;;;;;;;;;;;;7.66;nan;97718.28;4922775;29;19961;-85
2023/04/01 03:34:00;;;;;;;;;;;;;;;7.55;nan;97716.31;4935557;29;19933;-87
2023/04/01 03:36:44;;;;;;;;;;;;;;;7.48;nan;97705.94;4921978;29;19966;-88
2023/04/01 03:39:28;;;;;;;;;;;;;;;7.32;nan;97712.38;4938238;29;19961;-87
2023/04/01 03:42:12;;;;;;;;;;;;;;;7.53;nan;97718.34;4938207;29;19921;-89
2023/04/01 03:44:56;;;;;;;;;;;;;;;7.49;nan;97725.00;4938163;29;20494;-88
2023/04/01 03:47:40;;;;;;;;;;;;;;;7.82;nan;97730.06;4936053;29;19938;-86
2023/04/01 03:50:24;;;;;;;;;;;;;;;7.64;nan;97730.75;4923113;29;19922;-86
2023/04/01 03:53:08;;;;;;;;;;;;;;;7.72;nan;97735.72;4918696;29;19920;-87
2023/04/01 03:55:52;;;;;;;;;;;;;;;7.52;nan;97742.84;4922593;29;19921;-86
2023/04/01 03:58:36;;;;;;;;;;;;;;;7.49;nan;97749.31;4935743;29;19922;-87
2023/04/01 04:01:21;;;;;;;;;;;;;;;7.33;nan;97754.97;4923138;29;19922;-87
2023/04/01 04:04:05;;;;;;;;;;;;;;;7.46;nan;97754.13;4923320;29;19921;-85
2023/04/01 04:06:50;;;;;;;;;;;;;;;7.50;nan;97766.56;4923424;29;19969;-87
2023/04/01 04:09:35;;;;;;;;;;;;;;;7.55;nan;97758.09;4921915;29;19922;-89
2023/04/01 04:12:19;;;;;;;;;;;;;;;7.64;nan;97772.53;4923367;29;19922;-87
2023/04/01 04:15:03;;;;;;;;;;;;;;;7.66;nan;97764.47;4923295;29;20043;-86
2023/04/01 04:17:47;;;;;;;;;;;;;;;7.89;nan;97768.44;4919423;29;20379;-86
2023/04/01 04:20:31;;;;;;;;;;;;;;;7.88;nan;97778.06;4920894;29;19926;-88
2023/04/01 04:23:15;;;;;;;;;;;;;;;7.76;nan;97780.53;4920150;29;19965;-87
2023/04/01 04:26:04;;;;;;;;;;;;;;;7.70;nan;97776.94;4936790;29;20006;-88
2023/04/01 04:28:48;;;;;;;;;;;;;;;7.58;nan;97784.59;4922050;29;19923;-88
2023/04/01 04:31:31;;;;;;;;;;;;;;;7.73;nan;97791.41;4921418;29;19921;-89
2023/04/01 04:34:16;;;;;;;;;;;;;;;7.81;nan;97788.53;4935620;29;19921;-87
2023/04/01 04:37:00;;;;;;;;;;;;;;;7.72;nan;97795.03;4920767;29;20075;-87
2023/04/01 04:39:43;;;;;;;;;;;;;;;7.71;nan;97799.44;4921703;29;19930;-86
2023/04/01 04:42:27;;;;;;;;;;;;;;;7.32;nan;97800.34;4921983;29;19921;-86
2023/04/01 04:45:12;;;;;;;;;;;;;;;7.26;nan;97797.53;4921503;29;20272;-88
2023/04/01 04:47:56;;;;;;;;;;;;;;;7.48;nan;97810.38;4921321;29;19921;-87
2023/04/01 04:50:40;;;;;;;;;;;;;;;7.37;nan;97803.97;4921757;29;20306;-88
2023/04/01 04:53:25;;;;;;;;;;;;;;;7.20;nan;97798.34;4923235;29;19942;-87
2023/04/01 04:56:09;;;;;;;;;;;;;;;7.31;nan;97798.75;4922192;29;19921;-87
2023/04/01 04:58:53;;;;;;;;;;;;;;;7.48;nan;97805.13;4922127;29;19973;-88
2023/04/01 05:01:37;;;;;;;;;;;;;;;7.32;nan;97808.97;4921371;29;19973;-88
2023/04/01 05:04:21;;;;;;;;;;;;;;;7.14;nan;97817.44;4921203;29;20002;-89
2023/04/01 05:07:05;;;;;;;;;;;;;;;7.21;nan;97815.63;4935409;29;19925;-89
2023/04/01 05:09:51;;;;;;;;;;;;;;;7.50;nan;97828.41;4934876;29;20329;-88
2023/04/01 05:12:37;;;;;;;;;;;;;;;7.21;nan;97831.28;4921182;29;19961;-89
2023/04/01 05:15:21;;;;;;;;;;;;;;;7.43;nan;97839.69;4921196;29;19937;-89
2023/04/01 05:18:05;;;;;;;;;;;;;;;7.51;nan;97845.69;4919899;29;19922;-89
2023/04/01 05:20:50;;;;;;;;;;;;;;;7.32;nan;97842.13;4872224;29;1296214;-89
2023/04/01 05:23:34;;;;;;;;;;;;;;;7.38;nan;97846.53;4922154;29;19965;-89
2023/04/01 05:26:19;;;;;;;;;;;;;;;7.42;nan;97855.53;4931090;29;19925;-88
2023/04/01 05:29:03;;;;;;;;;;;;;;;7.40;nan;97857.56;4935976;29;20130;-86
2023/04/01 05:31:47;;;;;;;;;;;;;;;7.29;nan;97865.00;4933811;29;19921;-88
2023/04/01 05:34:31;;;;;;;;;;;;;;;7.37;nan;97865.78;4919158;29;19922;-87
2023/04/01 05:37:15;;;;;;;;;;;;;;;7.17;nan;97861.41;4935722;29;20272;-86
2023/04/01 05:39:59;;;;;;;;;;;;;;;7.19;nan;97861.22;4921213;29;19965;-89
2023/04/01 05:42:43;;;;;;;;;;;;;;;7.61;nan;97868.78;4918811;29;19973;-87
2023/04/01 05:45:27;;;;;;;;;;;;;;;7.28;nan;97871.25;4929674;29;20321;-90
2023/04/01 05:48:11;;;;;;;;;;;;;;;7.16;nan;97880.66;4918988;29;20361;-88
2023/04/01 05:50:55;;;;;;;;;;;;;;;7.36;nan;97879.84;4936033;29;20009;-89
2023/04/01 05:53:39;;;;;;;;;;;;;;;7.12;nan;97900.34;4919966;29;20005;-88
2023/04/01 05:56:23;;;;;;;;;;;;;;;7.11;nan;97894.31;4919333;29;19922;-86
2023/04/01 05:59:09;;;;;;;;;;;;;;;7.37;nan;97900.56;4916147;29;19926;-86
2023/04/01 06:01:53;;;;;;;;;;;;;;;7.35;nan;97899.94;4933721;29;19943;-88
2023/04/01 06:04:39;;;;;;;;;;;;;;;7.24;nan;97898.72;4935727;29;19969;-86
2023/04/01 06:07:26;;;;;;;;;;;;;;;7.37;nan;97902.34;4921463;29;19929;-87
2023/04/01 06:10:18;;;;;;;;;;;;;;;7.29;nan;97912.00;4921392;29;20028;-87
2023/04/01 06:13:17;;;;;;;;;;;;;;;7.47;nan;97913.19;4919422;29;19921;-88
2023/04/01 06:16:10;;;;;;;;;;;;;;;7.50;nan;97915.41;4920826;29;19922;-87
2023/04/01 06:18:57;;;;;;;;;;;;;;;7.38;nan;97911.78;4920819;29;19970;-86
2023/04/01 06:21:41;;;;;;;;;;;;;;;7.34;nan;97915.81;4934863;29;19933;-89
2023/04/01 06:24:37;;;;;;;;;;;;;;;7.33;nan;97922.81;4920180;29;21122;-86
2023/04/01 06:27:37;;;;;;;;;;;;;;;7.48;nan;97919.22;4937549;29;19947;-87
2023/04/01 06:30:40;;;;;;;;;;;;;;;7.50;nan;97918.00;4920721;29;20388;-87
2023/04/01 06:33:30;;;;;;;;;;;;;;;7.65;nan;97919.59;4935714;29;19922;-88
2023/04/01 06:36:23;;;;;;;;;;;;;;;7.34;nan;97934.88;4922539;29;19969;-90
2023/04/01 06:39:13;;;;;;;;;;;;;;;7.79;nan;97931.63;4923971;29;19961;-90
2023/04/01 06:42:06;;;;;;;;;;;;;;;7.43;nan;97938.91;4918308;29;19970;-89
2023/04/01 06:45:06;;;;;;;;;;;;;;;7.80;nan;97943.69;4932860;29;19977;-87
2023/04/01 06:47:50;;;;;;;;;;;;;;;7.72;nan;97951.75;4920092;29;20281;-89
2023/04/01 06:50:58;;;;;;;;;;;;;;;7.89;nan;97951.31;4919971;29;19921;-88
2023/04/01 06:54:00;;;;;;;;;;;;;;;7.88;nan;97950.50;4919239;29;20003;-87
2023/04/01 06:56:48;;;;;;;;;;;;;;;7.54;nan;97960.19;4932893;29;19973;-86
2023/04/01 06:59:34;;;;;;;;;;;;;;;7.49;nan;97968.63;4920234;29;19978;-87
2023/04/01 07:02:24;;;;;;;;;;;;;;;7.72;nan;97977.84;4917821;29;19942;-86
2023/04/01 07:05:11;;;;;;;;;;;;;;;8.04;nan;97980.63;4919590;29;20010;-87
2023/04/01 07:07:57;;;;;;;;;;;;;;;8.07;nan;97979.41;4933852;29;19971;-88
2023/04/01 07:10:45;;;;;;;;;;;;;;;8.23;nan;97983.38;4919282;29;19922;-88
2023/04/01 07:13:34;;;;;;;;;;;;;;;7.96;nan;97993.91;4934693;29;19966;-87
2023/04/01 07:16:27;;;;;;;;;;;;;;;8.05;nan;97987.44;4918102;29;21845;-87
2023/04/01 07:19:20;;;;;;;;;;;;;;;8.13;nan;97989.88;4931922;29;19970;-88
2023/04/01 07:22:06;;;;;;;;;;;;;;;8.23;nan;97996.47;4895315;29;19926;-86
2023/04/01 07:24:51;;;;;;;;;;;;;;;8.17;nan;97994.69;4889084;29;19922;-85
2023/04/01 07:27:35;;;;;;;;;;;;;;;8.29;nan;97999.06;4892556;29;19967;-87
2023/04/01 07:30:21;;;;;;;;;;;;;;;7.73;nan;98000.38;4902405;29;19923;-85
2023/04/01 07:33:26;;;;;;;;;;;;;;;8.18;nan;97998.91;4898247;29;19923;-86
2023/04/01 07:36:26;;;;;;;;;;;;;;;7.97;nan;98000.75;4898576;29;19921;-87
2023/04/01 07:39:16;;;;;;;;;;;;;;;8.25;nan;98003.09;4898819;29;19921;-88
2023/04/01 07:42:16;;;;;;;;;;;;;;;8.18;nan;98004.94;4898506;29;20384;-86
2023/04/01 07:45:06;;;;;;;;;;;;;;;8.62;nan;98015.69;4897220;29;19922;-84
2023/04/01 07:47:53;;;;;;;;;;;;;;;8.26;nan;98017.00;4896126;29;19922;-85
2023/04/01 07:50:41;;;;;;;;;;;;;;;8.20;nan;98026.44;4899068;29;19952;-87
2023/04/01 07:53:25;;;;;;;;;;;;;;;8.20;nan;98025.63;4899374;29;19926;-86
2023/04/01 07:56:11;;;;;;;;;;;;;;;8.31;nan;98038.09;4897213;29;19922;-86
2023/04/01 07:59:04;;;;;;;;;;;;;;;8.05;nan;98034.50;4907626;29;19962;-87
2023/04/01 08:01:54;;;;;;;;;;;;;;;7.90;nan;98047.78;4898305;29;19923;-87
2023/04/01 08:04:46;;;;;;;;;;;;;;;8.14;nan;98041.13;4898026;29;20022;-86
2023/04/01 08:07:37;;;;;;;;;;;;;;;8.08;nan;98044.56;4898300;29;20398;-85
2023/04/01 08:10:44;;;;;;;;;;;;;;;8.33;nan;98057.00;4897071;29;19923;-87
2023/04/01 08:13:45;;;;;;;;;;;;;;;8.43;nan;98065.19;4898380;29;20375;-87
2023/04/01 08:16:29;;;;;;;;;;;;;;;8.39;nan;98074.47;4896371;29;20280;-87
2023/04/01 08:19:13;;;;;;;;;;;;;;;8.67;nan;98076.06;4894927;29;20015;-86
2023/04/01 08:22:04;;;;;;;;;;;;;;;8.47;nan;98077.91;4896535;29;20347;-85
2023/04/01 08:24:49;;;;;;;;;;;;;;;8.41;nan;98090.75;4897622;29;19923;-86
2023/04/01 08:27:52;;;;;;;;;;;;;;;8.56;nan;98077.50;4896574;29;19987;-86
2023/04/01 08:30:43;;;;;;;;;;;;;;;8.85;nan;98079.84;4898057;29;19922;-86
2023/04/01 08:33:28;;;;;;;;;;;;;;;8.96;nan;98081.78;4895808;29;19980;-85
2023/04/01 08:36:24;;;;;;;;;;;;;;;8.95;nan;98080.19;4900332;29;21259;-86
2023/04/01 08:39:40;;;;;;;;;;;;;;;8.92;nan;98087.63;4895871;29;19937;-86
2023/04/01 08:42:43;;;;;;;;;;;;;;;8.68;nan;98095.16;4882233;29;19970;-85
2023/04/01 08:45:33;;;;;;;;;;;;;;;8.75;nan;98090.72;4897230;29;19930;-85
2023/04/01 08:48:22;;;;;;;;;;;;;;;8.93;nan;98102.31;4896373;29;20398;-85
2023/04/01 08:51:09;;;;;;;;;;;;;;;9.00;nan;98098.69;4897200;29;19926;-86
2023/04/01 08:54:02;;;;;;;;;;;;;;;9.05;nan;98110.38;4901070;29;19938;-85
2023/04/01 08:56:52;;;;;;;;;;;;;;;8.80;nan;98109.22;4896391;29;19923;-86
2023/04/01 08:59:48;;;;;;;;;;;;;;;8.81;nan;98121.31;4896291;29;19922;-85
2023/04/01 09:02:32;;;;;;;;;;;;;;;8.79;nan;98127.75;4896810;29;19984;-85
2023/04/01 09:05:32;;;;;;;;;;;;;;;8.67;nan;98125.78;4897188;29;19942;-83
2023/04/01 09:08:27;;;;;;;;;;;;;;;8.73;nan;98133.81;4897474;29;19970;-83
2023/04/01 09:11:12;;;;;;;;;;;;;;;8.74;nan;98128.34;4895314;29;19922;-84
2023/04/01 09:14:07;;;;;;;;;;;;;;;8.50;nan;98128.00;4895668;29;19922;-84
2023/04/01 09:17:00;;;;;;;;;;;;;;;8.82;nan;98136.00;4898001;29;19922;-84
2023/04/01 09:19:59;;;;;;;;;;;;;;;8.56;nan;98139.47;4897951;29;19922;-85
2023/04/01 09:22:45;;;;;;;;;;;;;;;8.90;nan;98128.91;4913999;29;20380;-83
2023/04/01 09:25:34;;;;;;;;;;;;;;;8.92;nan;98127.72;4914094;29;19934;-84
2023/04/01 09:29:00;;;;;;;;;;;;;;;8.82;nan;98138.59;4923834;29;20016;-84
2023/04/01 09:32:19;;;;;;;;;;;;;;;9.04;nan;98137.53;4926386;29;19922;-84
2023/04/01 09:35:10;;;;;;;;;;;;;;;9.36;nan;98148.09;4915395;29;19938;-84
2023/04/01 09:37:57;;;;;;;;;;;;;;;9.31;nan;98145.28;4911207;29;19922;-85
2023/04/01 09:41:03;;;;;;;;;;;;;;;9.40;nan;98149.28;4915541;29;19926;-85
2023/04/01 09:44:01;;;;;;;;;;;;;;;9.21;nan;98151.75;4913742;29;20412;-85
2023/04/01 09:47:03;;;;;;;;;;;;;;;9.21;nan;98157.00;4915084;29;19941;-84
2023/04/01 09:50:06;;;;;;;;;;;;;;;8.84;nan;98157.53;4912728;29;19943;-84
2023/04/01 09:52:56;;;;;;;;;;;;;;;8.89;nan;98167.38;4909999;29;19955;-85
2023/04/01 09:55:55;;;;;;;;;;;;;;;9.22;nan;98174.31;4913179;29;19969;-85
2023/04/01 09:58:57;;;;;;;;;;;;;;;9.00;nan;98174.59;4900701;29;19930;-85
2023/04/01 10:01:52;;;;;;;;;;;;;;;9.55;nan;98183.88;4913074;29;19937;-85
2023/04/01 10:04:39;;;;;;;;;;;;;;;9.35;nan;98185.75;4912323;29;19922;-85
2023/04/01 10:07:29;;;;;;;;;;;;;;;9.62;nan;98189.06;4912367;29;19960;-84
2023/04/01 10:10:42;;;;;;;;;;;;;;;9.37;nan;98194.22;4914275;29;19929;-83
2023/04/01 10:13:45;;;;;;;;;;;;;;;9.83;nan;98195.00;4902970;29;19922;-84
2023/04/01 10:16:32;;;;;;;;;;;;;;;10.03;nan;98202.78;4910563;29;20440;-85
2023/04/01 10:19:35;;;;;;;;;;;;;;;10.24;nan;98211.31;4913347;29;19922;-85
2023/04/01 10:22:22;;;;;;;;;;;;;;;10.26;nan;98206.66;4914760;29;20362;-84
2023/04/01 10:25:25;;;;;;;;;;;;;;;10.10;nan;98211.38;4914512;29;19926;-84
2023/04/01 10:28:12;;;;;;;;;;;;;;;9.99;nan;98220.75;4911245;29;19966;-85
2023/04/01 10:31:17;;;;;;;;;;;;;;;9.65;nan;98224.56;4910789;29;20297;-86
2023/04/01 10:34:20;;;;;;;;;;;;;;;9.77;nan;98220.25;4911903;29;19931;-84
2023/04/01 10:37:24;;;;;;;;;;;;;;;10.06;nan;98233.81;4909855;29;19922;-84
2023/04/01 10:40:27;;;;;;;;;;;;;;;9.63;nan;98226.53;4912111;29;19922;-84
2023/04/01 10:43:44;;;;;;;;;;;;;;;9.94;nan;98232.88;4914581;29;19962;-83
2023/04/01 10:46:43;;;;;;;;;;;;;;;9.35;nan;98238.16;4900141;29;19926;-83
2023/04/01 10:49:36;;;;;;;;;;;;;;;9.63;nan;98250.94;4914504;29;19922;-85
2023/04/01 10:52:39;;;;;;;;;;;;;;;9.53;nan;98254.00;4912262;29;19985;-84
2023/04/01 10:55:54;;;;;;;;;;;;;;;9.69;nan;98251.94;4914261;29;19929;-85
2023/04/01 10:58:54;;;;;;;;;;;;;;;10.03;nan;98260.47;4914826;29;19922;-84
2023/04/01 11:01:53;;;;;;;;;;;;;;;9.80;nan;98264.38;4914516;29;19966;-84
2023/04/01 11:04:50;;;;;;;;;;;;;;;;;;;;;
2023/04/01 11:08:10;;;;;;;;;;;;;;;;;;;;;
2023/04/01 11:11:09;;;;;;;;;;;;;;;9.89;nan;98277.25;4918407;29;19921;-83
2023/04/01 11:14:11;;;;;;;;;;;;;;;9.64;nan;98270.09;4916898;29;19922;-83
2023/04/01 11:17:28;;;;;;;;;;;;;;;9.75;nan;98279.94;4916353;29;19926;-84
2023/04/01 11:20:33;;;;;;;;;;;;;;;9.75;nan;98281.75;4893115;29;19925;-83
2023/04/01 11:23:23;;;;;;;;;;;;;;;10.17;nan;98297.06;4904744;29;19931;-84
2023/04/01 11:26:26;;;;;;;;;;;;;;;10.30;nan;98297.00;4903275;29;19961;-84
2023/04/01 11:29:29;;;;;;;;;;;;;;;10.43;nan;98307.47;4903112;29;19937;-83
2023/04/01 11:32:32;;;;;;;;;;;;;;;10.75;nan;98311.88;4917021;29;20022;-83
2023/04/01 11:35:19;;;;;;;;;;;;;;;10.14;nan;98317.47;4915763;29;20424;-83
2023/04/01 11:38:03;;;;;;;;;;;;;;;10.29;nan;98319.00;4914271;29;20010;-84
2023/04/01 11:40:56;;;;;;;;;;;;;;;10.15;nan;98321.69;4902986;29;19922;-84
2023/04/01 11:43:49;;;;;;;;;;;;;;;10.34;nan;98327.03;4917420;29;19922;-84
2023/04/01 11:46:53;;;;;;;;;;;;;;;10.32;nan;98329.09;4911121;29;19926;-86
2023/04/01 11:49:57;;;;;;;;;;;;;;;10.26;nan;98335.19;4901633;29;20387;-84
2023/04/01 11:52:59;;;;;;;;;;;;;;;10.53;nan;98343.75;4881633;29;19926;-87
2023/04/01 11:56:11;;;;;;;;;;;;;;;10.51;nan;98343.13;4900546;29;19922;-85
2023/04/01 11:58:54;;;;;;;;;;;;;;;10.43;nan;98346.81;4902055;29;19966;-86
2023/04/01 12:31:09;;;;;;;;;;;;;;;10.51;nan;98392.97;4857194;29;20014;-85
2023/04/01 12:34:19;;;;;;;;;;;;;;;10.62;nan;98394.16;4863623;29;20340;-85
2023/04/01 12:37:09;;;;;;;;;;;;;;;10.96;nan;98397.34;4859471;29;19923;-87
2023/04/01 12:40:08;;;;;;;;;;;;;;;11.26;nan;98403.81;4856459;29;19972;-85
2023/04/01 12:42:55;;;;;;;;;;;;;;;11.28;nan;98409.66;4914740;29;19922;-87
2023/04/01 13:48:18;;;;;;;;;;;;;;;10.51;nan;98484.03;4921160;29;19955;-88
2023/04/01 13:51:02;;;;;;;;;;;;;;;10.37;nan;98499.78;4914920;29;19921;-86
2023/04/01 13:53:55;;;;;;;;;;;;;;;10.63;nan;98492.88;4934246;29;19922;-86
2023/04/01 13:57:01;;;;;;;;;;;;;;;10.77;nan;98508.53;4931964;29;19922;-86
2023/04/01 14:00:02;;;;;;;;;;;;;;;11.14;nan;98514.00;4911422;29;20380;-86
2023/04/01 14:02:51;;;;;;;;;;;;;;;11.08;nan;98515.66;4920121;29;20407;-86
2023/04/01 14:05:46;;;;;;;;;;;;;;;11.28;nan;98514.72;4920786;29;19973;-86
2023/04/01 14:08:50;;;;;;;;;;;;;;;11.34;nan;98513.91;4913731;29;20329;-85
2023/04/01 14:12:01;;;;;;;;;;;;;;;11.71;nan;98523.75;4920940;29;20425;-86
2023/04/01 14:15:06;;;;;;;;;;;;;;;11.33;nan;98522.00;4915909;29;19930;-86
2023/04/01 14:17:59;;;;;;;;;;;;;;;11.41;nan;98530.44;4933389;29;19922;-85
2023/04/01 14:21:08;;;;;;;;;;;;;;;11.25;nan;98529.13;4932140;29;19921;-84
2023/04/01 14:23:55;;;;;;;;;;;;;;;11.08;nan;98531.41;4925864;29;19941;-87
2023/04/01 14:26:51;;;;;;;;;;;;;;;11.07;nan;98536.91;4918884;29;20449;-86
2023/04/01 14:29:54;;;;;;;;;;;;;;;11.34;nan;98542.81;4926501;29;19967;-88
2023/04/01 14:32:41;;;;;;;;;;;;;;;11.29;nan;98547.88;4931256;29;19921;-86
2023/04/01 14:35:46;;;;;;;;;;;;;;;11.29;nan;98559.19;4932142;29;19938;-84
2023/04/01 14:38:50;;;;;;;;;;;;;;;11.60;nan;98563.88;4935532;29;19930;-86
2023/04/01 14:41:34;;;;;;;;;;;;;;;11.42;nan;98563.56;4919907;29;19960;-86
2023/04/01 14:47:48;;;;;;;;;;;;;;;11.36;nan;98579.38;4930203;29;19971;-87
2023/04/01 14:50:58;;;;;;;;;;;;;;;10.89;nan;98579.59;4922814;29;21485;-85
2023/04/01 14:54:02;;;;;;;;;;;;;;;11.24;nan;98587.13;4920585;29;19925;-86
2023/04/01 14:56:48;;;;;;;;;;;;;;;11.11;nan;98588.00;4907836;29;19921;-85
2023/04/01 14:59:38;;;;;;;;;;;;;;;10.89;nan;98584.84;4923676;29;20337;-85
2023/04/01 15:02:31;;;;;;;;;;;;;;;10.72;nan;98601.06;4938045;29;19922;-87
2023/04/01 15:05:51;;;;;;;;;;;;;;;10.93;nan;98597.34;4915656;29;19973;-88
2023/04/01 15:08:54;;;;;;;;;;;;;;;10.91;nan;98604.63;4897457;29;20522;-84
2023/04/01 15:15:39;;;;;;;;;;;;;;;11.10;nan;98618.72;4934297;29;19988;-88
2023/04/01 15:18:41;;;;;;;;;;;;;;;10.78;nan;98625.66;4918979;29;20377;-86
2023/04/01 15:21:26;;;;;;;;;;;;;;;10.56;nan;98633.78;4919097;29;20079;-83
2023/04/01 15:25:27;;;;;;;;;;;;;;;10.70;nan;98635.38;4922532;29;19921;-86
2023/04/01 15:31:52;;;;;;;;;;;;;;;10.55;nan;98668.91;4939170;29;19921;-85
2023/04/01 15:34:57;;;;;;;;;;;;;;;10.84;nan;98659.00;4934841;29;19966;-85
2023/04/01 15:37:57;;;;;;;;;;;;;;;11.26;nan;98664.72;4936145;29;19966;-84
2023/04/01 15:40:48;;;;;;;;;;;;;;;11.29;nan;98664.28;4920157;29;20017;-84
2023/04/01 15:43:53;;;;;;;;;;;;;;;11.35;nan;98672.34;4936953;29;20136;-86
2023/04/01 15:46:48;;;;;;;;;;;;;;;11.19;nan;98684.13;4941096;29;20396;-87
2023/04/01 15:49:43;;;;;;;;;;;;;;;10.95;nan;98689.06;4935721;29;20349;-85
2023/04/01 15:52:42;;;;;;;;;;;;;;;11.29;nan;98690.56;4922227;29;19962;-82
2023/04/01 15:55:54;;;;;;;;;;;;;;;11.21;nan;98696.06;4920935;29;19921;-85
2023/04/01 15:58:56;;;;;;;;;;;;;;;11.26;nan;98700.69;4934522;29;20428;-87
2023/04/01 16:02:01;;;;;;;;;;;;;;;10.81;nan;98701.41;4936477;29;19958;-85
2023/04/01 16:05:00;;;;;;;;;;;;;;;10.76;nan;98716.94;4922232;29;19914;-86
2023/04/01 16:08:09;;;;;;;;;;;;;;;11.23;nan;98716.88;4935555;29;20420;-85
2023/04/01 16:10:56;;;;;;;;;;;;;;;11.21;nan;98713.63;4924933;29;19942;-87
2023/04/01 16:13:54;;;;;;;;;;;;;;;11.00;nan;98726.84;4936502;29;19921;-88
2023/04/01 16:16:46;;;;;;;;;;;;;;;10.61;nan;98744.22;4936482;29;20376;-83
2023/04/01 16:19:48;;;;;;;;;;;;;;;10.54;nan;98740.78;4934834;29;19921;-85
2023/04/01 16:22:31;;;;;;;;;;;;;;;10.56;nan;98744.81;4921669;29;20321;-85
2023/04/01 16:25:34;;;;;;;;;;;;;;;10.59;nan;98748.84;4936177;29;19922;-84
2023/04/01 16:28:27;;;;;;;;;;;;;;;10.84;nan;98750.88;4935825;29;20002;-84
2023/04/01 16:31:29;;;;;;;;;;;;;;;10.55;nan;98773.88;4935820;29;19965;-84
2023/04/01 16:34:48;;;;;;;;;;;;;;;10.52;nan;98776.91;4921945;29;19934;-84
2023/04/01 16:41:07;;;;;;;;;;;;;;;10.33;nan;98781.91;4858951;29;20441;-85
2023/04/01 16:44:11;;;;;;;;;;;;;;;10.65;nan;98784.81;4858858;29;19960;-84
2023/04/01 16:47:09;;;;;;;;;;;;;;;10.54;nan;98801.13;4918268;29;20445;-84
2023/04/01 16:49:58;;;;;;;;;;;;;;;10.44;nan;98804.16;4921568;29;19978;-84
2023/04/01 16:53:01;;;;;;;;;;;;;;;10.37;nan;98804.09;4934588;29;20469;-84
2023/04/01 16:56:00;;;;;;;;;;;;;;;10.23;nan;98808.53;4922291;29;20009;-83
2023/04/01 17:02:18;;;;;;;;;;;;;;;10.20;nan;98808.09;4933121;29;19921;-86
2023/04/01 17:05:08;;;;;;;;;;;;;;;10.27;nan;98808.94;4921570;29;20269;-84
2023/04/01 17:07:52;;;;;;;;;;;;;;;10.44;nan;98819.91;4934115;29;19926;-84
2023/04/01 17:10:45;;;;;;;;;;;;;;;10.08;nan;98823.59;4935739;29;19921;-88
2023/04/01 17:13:45;;;;;;;;;;;;;;;10.20;nan;98835.16;4919294;29;19922;-85
2023/04/01 17:16:29;;;;;;;;;;;;;;;9.96;nan;98839.91;4921382;29;20001;-85
2023/04/01 17:19:32;;;;;;;;;;;;;;;10.05;nan;98842.34;4920877;29;19958;-83
2023/04/01 17:22:31;;;;;;;;;;;;;;;9.91;nan;98851.97;4921346;29;19974;-85
2023/04/01 17:25:15;;;;;;;;;;;;;;;9.86;nan;98855.19;4919868;29;19966;-86
2023/04/01 17:28:09;;;;;;;;;;;;;;;9.84;nan;98867.66;4922251;29;20346;-84
2023/04/01 17:30:54;;;;;;;;;;;;;;;9.50;nan;98875.34;4924829;29;19975;-86